sensor_id;sensor_type;location;lat;lon;timestamp;temperature;humidity
19397;DHT22;9834;48.076;11.878;2023-10-09T00:01:49;12.50;99.90
19397;DHT22;9834;48.076;11.878;2023-10-09T00:04:16;12.50;99.90
19397;DHT22;9834;48.076;11.878;2023-10-09T00:06:46;12.50;99.90
19397;DHT22;9834;48.076;11.878;2023-10-09T00:09:18;12.40;99.90
19397;DHT22;9834;48.076;11.878;2023-10-09T00:11:59;12.30;99.90
19397;DHT22;9834;48.076;11.878;2023-10-09T00:14:31;12.30;99.90
19397;DHT22;9834;48.076;11.878;2023-10-09T00:17:02;12.20;99.90
19397;DHT22;9834;48.076;11.878;2023-10-09T00:19:43;12.10;99.90
19397;DHT22;9834;48.076;11.878;2023-10-09T00:22:13;12.00;99.90
19397;DHT22;9834;48.076;11.878;2023-10-09T00:24:57;12.00;99.90
19397;DHT22;9834;48.076;11.878;2023-10-09T00:27:54;11.90;99.90
19397;DHT22;9834;48.076;11.878;2023-10-09T00:30:25;11.80;99.90
19397;DHT22;9834;48.076;11.878;2023-10-09T00:32:55;11.80;99.90
19397;DHT22;9834;48.076;11.878;2023-10-09T00:35:37;11.70;99.90
19397;DHT22;9834;48.076;11.878;2023-10-09T00:38:15;11.70;99.90
19397;DHT22;9834;48.076;11.878;2023-10-09T00:40:50;11.70;99.90
19397;DHT22;9834;48.076;11.878;2023-10-09T00:43:34;11.70;99.90
19397;DHT22;9834;48.076;11.878;2023-10-09T00:46:08;11.70;99.90
19397;DHT22;9834;48.076;11.878;2023-10-09T00:48:45;11.70;99.90
19397;DHT22;9834;48.076;11.878;2023-10-09T00:51:21;11.70;99.90
19397;DHT22;9834;48.076;11.878;2023-10-09T00:53:53;11.70;99.90
19397;DHT22;9834;48.076;11.878;2023-10-09T00:56:22;11.70;99.90
19397;DHT22;9834;48.076;11.878;2023-10-09T00:59:04;11.70;99.90
19397;DHT22;9834;48.076;11.878;2023-10-09T01:01:41;11.70;99.90
19397;DHT22;9834;48.076;11.878;2023-10-09T01:04:23;11.70;99.90
19397;DHT22;9834;48.076;11.878;2023-10-09T01:06:54;11.80;99.90
19397;DHT22;9834;48.076;11.878;2023-10-09T01:09:37;11.80;99.90
19397;DHT22;9834;48.076;11.878;2023-10-09T01:12:12;11.80;99.90
19397;DHT22;9834;48.076;11.878;2023-10-09T01:14:43;11.70;99.90
19397;DHT22;9834;48.076;11.878;2023-10-09T01:17:29;11.80;99.90
19397;DHT22;9834;48.076;11.878;2023-10-09T01:20:01;11.80;99.90
19397;DHT22;9834;48.076;11.878;2023-10-09T01:22:33;11.80;99.90
19397;DHT22;9834;48.076;11.878;2023-10-09T01:25:06;11.80;99.90
19397;DHT22;9834;48.076;11.878;2023-10-09T01:27:33;11.80;99.90
19397;DHT22;9834;48.076;11.878;2023-10-09T01:30:17;11.80;99.90
19397;DHT22;9834;48.076;11.878;2023-10-09T01:32:45;11.80;99.90
19397;DHT22;9834;48.076;11.878;2023-10-09T01:35:16;11.80;99.90
19397;DHT22;9834;48.076;11.878;2023-10-09T01:37:46;11.80;99.90
19397;DHT22;9834;48.076;11.878;2023-10-09T01:40:23;11.80;99.90
19397;DHT22;9834;48.076;11.878;2023-10-09T01:42:53;11.80;99.90
19397;DHT22;9834;48.076;11.878;2023-10-09T01:45:22;11.80;99.90
19397;DHT22;9834;48.076;11.878;2023-10-09T01:47:56;11.80;99.90
19397;DHT22;9834;48.076;11.878;2023-10-09T01:50:31;11.90;99.90
19397;DHT22;9834;48.076;11.878;2023-10-09T01:53:07;11.90;99.90
19397;DHT22;9834;48.076;11.878;2023-10-09T01:55:44;11.90;99.90
19397;DHT22;9834;48.076;11.878;2023-10-09T01:58:12;12.00;99.90
19397;DHT22;9834;48.076;11.878;2023-10-09T02:00:50;11.90;99.90
19397;DHT22;9834;48.076;11.878;2023-10-09T02:03:24;11.90;99.90
19397;DHT22;9834;48.076;11.878;2023-10-09T02:05:52;11.80;99.90
19397;DHT22;9834;48.076;11.878;2023-10-09T02:08:25;11.80;99.90
19397;DHT22;9834;48.076;11.878;2023-10-09T02:10:56;11.70;99.90
19397;DHT22;9834;48.076;11.878;2023-10-09T02:13:23;11.70;99.90
19397;DHT22;9834;48.076;11.878;2023-10-09T02:15:58;11.60;99.90
19397;DHT22;9834;48.076;11.878;2023-10-09T02:18:42;11.60;99.90
19397;DHT22;9834;48.076;11.878;2023-10-09T02:21:19;11.60;99.90
19397;DHT22;9834;48.076;11.878;2023-10-09T02:24:02;11.60;99.90
19397;DHT22;9834;48.076;11.878;2023-10-09T02:26:36;11.60;99.90
19397;DHT22;9834;48.076;11.878;2023-10-09T02:29:32;11.60;99.90
19397;DHT22;9834;48.076;11.878;2023-10-09T02:32:00;11.60;99.90
19397;DHT22;9834;48.076;11.878;2023-10-09T02:34:39;11.60;99.90
19397;DHT22;9834;48.076;11.878;2023-10-09T02:37:09;11.60;99.90
19397;DHT22;9834;48.076;11.878;2023-10-09T02:39:41;11.70;99.90
19397;DHT22;9834;48.076;11.878;2023-10-09T02:42:17;11.70;99.90
19397;DHT22;9834;48.076;11.878;2023-10-09T02:44:52;11.70;99.90
19397;DHT22;9834;48.076;11.878;2023-10-09T02:47:20;11.70;99.90
19397;DHT22;9834;48.076;11.878;2023-10-09T02:49:53;11.70;99.90
19397;DHT22;9834;48.076;11.878;2023-10-09T02:52:26;11.70;99.90
19397;DHT22;9834;48.076;11.878;2023-10-09T02:54:58;11.70;99.90
19397;DHT22;9834;48.076;11.878;2023-10-09T02:57:33;11.60;99.90
19397;DHT22;9834;48.076;11.878;2023-10-09T03:00:07;11.60;99.90
19397;DHT22;9834;48.076;11.878;2023-10-09T03:02:50;11.50;99.90
19397;DHT22;9834;48.076;11.878;2023-10-09T03:05:17;11.50;99.90
19397;DHT22;9834;48.076;11.878;2023-10-09T03:07:46;11.40;99.90
19397;DHT22;9834;48.076;11.878;2023-10-09T03:10:14;11.30;99.90
19397;DHT22;9834;48.076;11.878;2023-10-09T03:12:53;11.30;99.90
19397;DHT22;9834;48.076;11.878;2023-10-09T03:15:20;11.30;99.90
19397;DHT22;9834;48.076;11.878;2023-10-09T03:17:48;11.20;99.90
19397;DHT22;9834;48.076;11.878;2023-10-09T03:20:16;11.20;99.90
19397;DHT22;9834;48.076;11.878;2023-10-09T03:22:50;11.10;99.90
19397;DHT22;9834;48.076;11.878;2023-10-09T03:25:19;11.00;99.90
19397;DHT22;9834;48.076;11.878;2023-10-09T03:27:48;11.10;99.90
19397;DHT22;9834;48.076;11.878;2023-10-09T03:30:18;11.10;99.90
19397;DHT22;9834;48.076;11.878;2023-10-09T03:32:51;11.00;99.90
19397;DHT22;9834;48.076;11.878;2023-10-09T03:35:21;11.00;99.90
19397;DHT22;9834;48.076;11.878;2023-10-09T03:37:56;10.90;99.90
19397;DHT22;9834;48.076;11.878;2023-10-09T03:40:29;10.90;99.90
19397;DHT22;9834;48.076;11.878;2023-10-09T03:43:08;10.90;99.90
19397;DHT22;9834;48.076;11.878;2023-10-09T03:45:42;10.90;99.90
19397;DHT22;9834;48.076;11.878;2023-10-09T03:48:19;10.90;99.90
19397;DHT22;9834;48.076;11.878;2023-10-09T03:50:51;10.90;99.90
19397;DHT22;9834;48.076;11.878;2023-10-09T03:53:34;10.80;99.90
19397;DHT22;9834;48.076;11.878;2023-10-09T03:56:06;10.80;99.90
19397;DHT22;9834;48.076;11.878;2023-10-09T03:58:39;10.80;99.90
19397;DHT22;9834;48.076;11.878;2023-10-09T04:01:14;10.80;99.90
19397;DHT22;9834;48.076;11.878;2023-10-09T04:03:48;10.80;99.90
19397;DHT22;9834;48.076;11.878;2023-10-09T04:06:37;10.80;99.90
19397;DHT22;9834;48.076;11.878;2023-10-09T04:09:10;10.80;99.90
19397;DHT22;9834;48.076;11.878;2023-10-09T04:12:07;10.80;99.90
19397;DHT22;9834;48.076;11.878;2023-10-09T04:15:03;10.90;99.90
19397;DHT22;9834;48.076;11.878;2023-10-09T04:17:35;10.90;99.90
19397;DHT22;9834;48.076;11.878;2023-10-09T04:20:10;10.90;99.90
19397;DHT22;9834;48.076;11.878;2023-10-09T04:22:55;10.90;99.90
19397;DHT22;9834;48.076;11.878;2023-10-09T04:25:30;11.00;99.90
19397;DHT22;9834;48.076;11.878;2023-10-09T04:28:10;11.00;99.90
19397;DHT22;9834;48.076;11.878;2023-10-09T04:30:49;11.00;99.90
19397;DHT22;9834;48.076;11.878;2023-10-09T04:33:22;11.10;99.90
19397;DHT22;9834;48.076;11.878;2023-10-09T04:36:15;11.20;99.90
19397;DHT22;9834;48.076;11.878;2023-10-09T04:39:07;11.30;99.90
19397;DHT22;9834;48.076;11.878;2023-10-09T04:42:00;11.30;99.90
19397;DHT22;9834;48.076;11.878;2023-10-09T04:44:59;11.30;99.90
19397;DHT22;9834;48.076;11.878;2023-10-09T04:47:46;11.30;99.90
19397;DHT22;9834;48.076;11.878;2023-10-09T04:50:23;11.30;99.90
19397;DHT22;9834;48.076;11.878;2023-10-09T04:53:09;11.20;99.90
19397;DHT22;9834;48.076;11.878;2023-10-09T04:55:52;11.10;99.90
19397;DHT22;9834;48.076;11.878;2023-10-09T04:58:28;11.00;99.90
19397;DHT22;9834;48.076;11.878;2023-10-09T05:01:14;10.90;99.90
19397;DHT22;9834;48.076;11.878;2023-10-09T05:04:03;10.80;99.90
19397;DHT22;9834;48.076;11.878;2023-10-09T05:06:41;10.80;99.90
19397;DHT22;9834;48.076;11.878;2023-10-09T05:09:25;10.70;99.90
19397;DHT22;9834;48.076;11.878;2023-10-09T05:12:15;10.70;99.90
19397;DHT22;9834;48.076;11.878;2023-10-09T05:14:44;10.70;99.90
19397;DHT22;9834;48.076;11.878;2023-10-09T05:17:32;10.70;99.90
19397;DHT22;9834;48.076;11.878;2023-10-09T05:20:16;10.70;99.90
19397;DHT22;9834;48.076;11.878;2023-10-09T05:23:00;10.70;99.90
19397;DHT22;9834;48.076;11.878;2023-10-09T05:25:51;10.70;99.90
19397;DHT22;9834;48.076;11.878;2023-10-09T05:28:24;10.70;99.90
19397;DHT22;9834;48.076;11.878;2023-10-09T05:30:58;10.60;99.90
19397;DHT22;9834;48.076;11.878;2023-10-09T05:33:37;10.60;99.90
19397;DHT22;9834;48.076;11.878;2023-10-09T05:36:07;10.60;99.90
19397;DHT22;9834;48.076;11.878;2023-10-09T05:39:02;10.60;99.90
19397;DHT22;9834;48.076;11.878;2023-10-09T05:41:47;10.60;99.90
19397;DHT22;9834;48.076;11.878;2023-10-09T05:44:26;10.70;99.90
19397;DHT22;9834;48.076;11.878;2023-10-09T05:47:10;10.70;99.90
19397;DHT22;9834;48.076;11.878;2023-10-09T05:49:56;10.80;99.90
19397;DHT22;9834;48.076;11.878;2023-10-09T05:52:52;10.80;99.90
19397;DHT22;9834;48.076;11.878;2023-10-09T05:55:37;10.90;99.90
19397;DHT22;9834;48.076;11.878;2023-10-09T05:58:22;10.90;99.90
19397;DHT22;9834;48.076;11.878;2023-10-09T06:01:06;10.90;99.90
19397;DHT22;9834;48.076;11.878;2023-10-09T06:03:50;10.90;99.90
19397;DHT22;9834;48.076;11.878;2023-10-09T06:06:21;11.00;99.90
19397;DHT22;9834;48.076;11.878;2023-10-09T06:09:13;11.00;99.90
19397;DHT22;9834;48.076;11.878;2023-10-09T06:12:21;11.00;99.90
19397;DHT22;9834;48.076;11.878;2023-10-09T06:14:58;11.10;99.90
19397;DHT22;9834;48.076;11.878;2023-10-09T06:17:47;11.10;99.90
19397;DHT22;9834;48.076;11.878;2023-10-09T06:20:16;11.20;99.90
19397;DHT22;9834;48.076;11.878;2023-10-09T06:23:00;11.20;99.90
19397;DHT22;9834;48.076;11.878;2023-10-09T06:25:43;11.30;99.90
19397;DHT22;9834;48.076;11.878;2023-10-09T06:28:19;11.50;99.90
19397;DHT22;9834;48.076;11.878;2023-10-09T06:30:58;11.70;99.90
19397;DHT22;9834;48.076;11.878;2023-10-09T06:33:54;11.90;99.90
19397;DHT22;9834;48.076;11.878;2023-10-09T06:36:40;12.20;99.90
19397;DHT22;9834;48.076;11.878;2023-10-09T06:39:18;12.50;99.90
19397;DHT22;9834;48.076;11.878;2023-10-09T06:42:04;12.70;99.90
19397;DHT22;9834;48.076;11.878;2023-10-09T06:44:59;13.00;99.90
19397;DHT22;9834;48.076;11.878;2023-10-09T06:47:33;13.20;99.90
19397;DHT22;9834;48.076;11.878;2023-10-09T06:50:07;13.40;99.90
19397;DHT22;9834;48.076;11.878;2023-10-09T06:52:52;13.50;99.90
19397;DHT22;9834;48.076;11.878;2023-10-09T06:55:45;13.70;99.90
19397;DHT22;9834;48.076;11.878;2023-10-09T06:58:23;14.00;99.90
19397;DHT22;9834;48.076;11.878;2023-10-09T07:00:51;14.30;99.90
19397;DHT22;9834;48.076;11.878;2023-10-09T07:03:41;14.60;99.90
19397;DHT22;9834;48.076;11.878;2023-10-09T07:06:18;14.90;99.90
19397;DHT22;9834;48.076;11.878;2023-10-09T07:08:50;15.30;99.90
19397;DHT22;9834;48.076;11.878;2023-10-09T07:11:42;15.50;99.90
19397;DHT22;9834;48.076;11.878;2023-10-09T07:14:39;15.80;99.90
19397;DHT22;9834;48.076;11.878;2023-10-09T07:17:23;16.10;99.90
19397;DHT22;9834;48.076;11.878;2023-10-09T07:20:11;16.20;99.90
19397;DHT22;9834;48.076;11.878;2023-10-09T07:22:41;16.30;99.90
19397;DHT22;9834;48.076;11.878;2023-10-09T07:25:22;16.30;99.90
19397;DHT22;9834;48.076;11.878;2023-10-09T07:28:08;16.30;99.90
19397;DHT22;9834;48.076;11.878;2023-10-09T07:30:51;16.20;99.90
19397;DHT22;9834;48.076;11.878;2023-10-09T07:33:23;16.30;99.90
19397;DHT22;9834;48.076;11.878;2023-10-09T07:36:01;16.30;99.90
19397;DHT22;9834;48.076;11.878;2023-10-09T07:38:33;16.50;99.90
19397;DHT22;9834;48.076;11.878;2023-10-09T07:41:02;16.60;99.90
19397;DHT22;9834;48.076;11.878;2023-10-09T07:43:43;16.70;99.90
19397;DHT22;9834;48.076;11.878;2023-10-09T07:46:14;16.80;99.90
19397;DHT22;9834;48.076;11.878;2023-10-09T07:49:04;17.00;99.90
19397;DHT22;9834;48.076;11.878;2023-10-09T07:51:35;17.10;99.90
19397;DHT22;9834;48.076;11.878;2023-10-09T07:54:07;17.30;99.90
19397;DHT22;9834;48.076;11.878;2023-10-09T07:56:38;17.50;99.90
19397;DHT22;9834;48.076;11.878;2023-10-09T07:59:07;17.80;99.90
19397;DHT22;9834;48.076;11.878;2023-10-09T08:01:39;18.30;99.90
19397;DHT22;9834;48.076;11.878;2023-10-09T08:04:17;18.70;99.90
19397;DHT22;9834;48.076;11.878;2023-10-09T08:06:55;18.90;97.90
19397;DHT22;9834;48.076;11.878;2023-10-09T08:09:24;18.90;98.10
19397;DHT22;9834;48.076;11.878;2023-10-09T08:12:12;19.10;95.00
19397;DHT22;9834;48.076;11.878;2023-10-09T08:15:02;19.20;93.10
19397;DHT22;9834;48.076;11.878;2023-10-09T08:17:53;19.30;93.20
19397;DHT22;9834;48.076;11.878;2023-10-09T08:20:28;19.50;94.10
19397;DHT22;9834;48.076;11.878;2023-10-09T08:23:02;19.80;92.70
19397;DHT22;9834;48.076;11.878;2023-10-09T08:25:36;20.10;92.10
19397;DHT22;9834;48.076;11.878;2023-10-09T08:28:22;20.40;89.70
19397;DHT22;9834;48.076;11.878;2023-10-09T08:31:09;20.80;89.60
19397;DHT22;9834;48.076;11.878;2023-10-09T08:33:46;21.10;84.20
19397;DHT22;9834;48.076;11.878;2023-10-09T08:36:22;21.20;80.50
19397;DHT22;9834;48.076;11.878;2023-10-09T08:38:53;21.20;78.20
19397;DHT22;9834;48.076;11.878;2023-10-09T08:41:26;21.20;77.30
19397;DHT22;9834;48.076;11.878;2023-10-09T08:43:56;21.20;79.10
19397;DHT22;9834;48.076;11.878;2023-10-09T08:46:24;21.30;80.00
19397;DHT22;9834;48.076;11.878;2023-10-09T08:48:54;21.40;79.10
19397;DHT22;9834;48.076;11.878;2023-10-09T08:51:23;21.50;74.80
19397;DHT22;9834;48.076;11.878;2023-10-09T08:53:53;21.60;74.80
19397;DHT22;9834;48.076;11.878;2023-10-09T08:56:23;21.80;73.60
19397;DHT22;9834;48.076;11.878;2023-10-09T08:58:54;21.80;70.80
19397;DHT22;9834;48.076;11.878;2023-10-09T09:01:22;22.00;71.70
19397;DHT22;9834;48.076;11.878;2023-10-09T09:03:51;22.00;67.40
19397;DHT22;9834;48.076;11.878;2023-10-09T09:06:25;22.00;65.40
19397;DHT22;9834;48.076;11.878;2023-10-09T09:08:52;22.00;65.50
19397;DHT22;9834;48.076;11.878;2023-10-09T09:11:36;22.00;67.00
19397;DHT22;9834;48.076;11.878;2023-10-09T09:14:17;22.20;66.20
19397;DHT22;9834;48.076;11.878;2023-10-09T09:16:47;22.30;64.00
19397;DHT22;9834;48.076;11.878;2023-10-09T09:19:20;22.30;63.60
19397;DHT22;9834;48.076;11.878;2023-10-09T09:22:01;22.30;63.20
19397;DHT22;9834;48.076;11.878;2023-10-09T09:24:57;22.20;64.60
19397;DHT22;9834;48.076;11.878;2023-10-09T09:27:48;22.30;63.00
19397;DHT22;9834;48.076;11.878;2023-10-09T09:30:28;22.20;64.40
19397;DHT22;9834;48.076;11.878;2023-10-09T09:33:16;22.30;63.30
19397;DHT22;9834;48.076;11.878;2023-10-09T09:36:01;22.40;63.60
19397;DHT22;9834;48.076;11.878;2023-10-09T09:38:31;22.60;62.90
19397;DHT22;9834;48.076;11.878;2023-10-09T09:41:19;22.70;62.30
19397;DHT22;9834;48.076;11.878;2023-10-09T09:43:53;22.90;60.90
19397;DHT22;9834;48.076;11.878;2023-10-09T09:46:24;23.00;61.40
19397;DHT22;9834;48.076;11.878;2023-10-09T09:49:00;22.90;60.80
19397;DHT22;9834;48.076;11.878;2023-10-09T09:51:30;23.00;62.10
19397;DHT22;9834;48.076;11.878;2023-10-09T09:54:01;23.10;60.40
19397;DHT22;9834;48.076;11.878;2023-10-09T09:56:37;23.20;61.70
19397;DHT22;9834;48.076;11.878;2023-10-09T09:59:08;23.40;60.00
19397;DHT22;9834;48.076;11.878;2023-10-09T10:01:45;23.60;59.00
19397;DHT22;9834;48.076;11.878;2023-10-09T10:04:26;23.30;58.70
19397;DHT22;9834;48.076;11.878;2023-10-09T10:07:03;23.20;58.70
19397;DHT22;9834;48.076;11.878;2023-10-09T10:09:40;23.20;60.20
19397;DHT22;9834;48.076;11.878;2023-10-09T10:12:49;23.20;60.50
19397;DHT22;9834;48.076;11.878;2023-10-09T10:16:00;23.20;60.70
19397;DHT22;9834;48.076;11.878;2023-10-09T10:19:03;23.50;58.80
19397;DHT22;9834;48.076;11.878;2023-10-09T10:21:48;23.60;56.80
19397;DHT22;9834;48.076;11.878;2023-10-09T10:24:44;23.60;58.20
19397;DHT22;9834;48.076;11.878;2023-10-09T10:27:33;23.70;56.70
19397;DHT22;9834;48.076;11.878;2023-10-09T10:30:30;23.90;55.90
19397;DHT22;9834;48.076;11.878;2023-10-09T10:33:08;24.10;56.70
19397;DHT22;9834;48.076;11.878;2023-10-09T10:35:45;24.10;55.10
19397;DHT22;9834;48.076;11.878;2023-10-09T10:38:31;24.40;56.40
19397;DHT22;9834;48.076;11.878;2023-10-09T10:41:19;24.50;54.20
19397;DHT22;9834;48.076;11.878;2023-10-09T10:43:53;24.50;53.90
19397;DHT22;9834;48.076;11.878;2023-10-09T10:46:55;24.40;54.40
19397;DHT22;9834;48.076;11.878;2023-10-09T10:49:24;24.50;54.60
19397;DHT22;9834;48.076;11.878;2023-10-09T10:52:02;24.40;53.70
19397;DHT22;9834;48.076;11.878;2023-10-09T10:54:41;24.50;55.30
19397;DHT22;9834;48.076;11.878;2023-10-09T10:57:36;24.50;53.30
19397;DHT22;9834;48.076;11.878;2023-10-09T11:00:20;24.50;54.40
19397;DHT22;9834;48.076;11.878;2023-10-09T11:03:04;24.30;51.80
19397;DHT22;9834;48.076;11.878;2023-10-09T11:05:48;24.20;52.40
19397;DHT22;9834;48.076;11.878;2023-10-09T11:08:18;24.20;52.30
19397;DHT22;9834;48.076;11.878;2023-10-09T11:10:49;24.00;53.00
19397;DHT22;9834;48.076;11.878;2023-10-09T11:13:26;23.90;53.00
19397;DHT22;9834;48.076;11.878;2023-10-09T11:16:18;23.70;52.30
19397;DHT22;9834;48.076;11.878;2023-10-09T11:19:01;23.90;52.80
19397;DHT22;9834;48.076;11.878;2023-10-09T11:21:38;24.10;51.80
19397;DHT22;9834;48.076;11.878;2023-10-09T11:24:09;24.10;52.70
19397;DHT22;9834;48.076;11.878;2023-10-09T11:26:50;24.20;51.80
19397;DHT22;9834;48.076;11.878;2023-10-09T11:29:32;24.50;51.10
19397;DHT22;9834;48.076;11.878;2023-10-09T11:32:16;25.60;50.40
19397;DHT22;9834;48.076;11.878;2023-10-09T11:34:50;27.10;47.30
19397;DHT22;9834;48.076;11.878;2023-10-09T11:37:22;27.80;44.80
19397;DHT22;9834;48.076;11.878;2023-10-09T11:40:05;27.90;44.20
19397;DHT22;9834;48.076;11.878;2023-10-09T11:42:50;28.40;42.60
19397;DHT22;9834;48.076;11.878;2023-10-09T11:45:25;28.40;41.40
19397;DHT22;9834;48.076;11.878;2023-10-09T11:48:17;27.70;42.70
19397;DHT22;9834;48.076;11.878;2023-10-09T11:50:55;26.60;43.80
19397;DHT22;9834;48.076;11.878;2023-10-09T11:53:42;25.80;44.80
19397;DHT22;9834;48.076;11.878;2023-10-09T11:56:09;25.20;45.10
19397;DHT22;9834;48.076;11.878;2023-10-09T11:58:42;25.40;45.80
19397;DHT22;9834;48.076;11.878;2023-10-09T12:01:16;25.40;45.70
19397;DHT22;9834;48.076;11.878;2023-10-09T12:03:52;25.40;45.70
19397;DHT22;9834;48.076;11.878;2023-10-09T12:06:22;25.00;46.90
19397;DHT22;9834;48.076;11.878;2023-10-09T12:08:49;24.70;48.00
19397;DHT22;9834;48.076;11.878;2023-10-09T12:11:17;24.70;48.30
19397;DHT22;9834;48.076;11.878;2023-10-09T12:13:57;24.80;47.00
19397;DHT22;9834;48.076;11.878;2023-10-09T12:16:38;24.70;47.00
19397;DHT22;9834;48.076;11.878;2023-10-09T12:19:13;24.50;47.70
19397;DHT22;9834;48.076;11.878;2023-10-09T12:21:45;24.30;48.00
19397;DHT22;9834;48.076;11.878;2023-10-09T12:24:15;24.30;48.40
19397;DHT22;9834;48.076;11.878;2023-10-09T12:26:44;24.50;50.00
19397;DHT22;9834;48.076;11.878;2023-10-09T12:29:21;24.70;48.60
19397;DHT22;9834;48.076;11.878;2023-10-09T12:32:05;24.70;47.50
19397;DHT22;9834;48.076;11.878;2023-10-09T12:34:39;24.40;47.10
19397;DHT22;9834;48.076;11.878;2023-10-09T12:37:10;24.30;47.10
19397;DHT22;9834;48.076;11.878;2023-10-09T12:39:38;24.20;46.90
19397;DHT22;9834;48.076;11.878;2023-10-09T12:42:06;24.10;48.10
19397;DHT22;9834;48.076;11.878;2023-10-09T12:44:33;24.10;48.40
19397;DHT22;9834;48.076;11.878;2023-10-09T12:47:06;24.10;49.30
19397;DHT22;9834;48.076;11.878;2023-10-09T12:49:41;23.90;49.00
19397;DHT22;9834;48.076;11.878;2023-10-09T12:52:08;23.70;49.50
19397;DHT22;9834;48.076;11.878;2023-10-09T12:54:47;23.50;50.00
19397;DHT22;9834;48.076;11.878;2023-10-09T12:57:22;23.40;50.60
19397;DHT22;9834;48.076;11.878;2023-10-09T12:59:52;23.20;50.80
19397;DHT22;9834;48.076;11.878;2023-10-09T13:02:28;23.00;50.40
19397;DHT22;9834;48.076;11.878;2023-10-09T13:04:55;22.90;50.80
19397;DHT22;9834;48.076;11.878;2023-10-09T13:07:25;22.80;51.70
19397;DHT22;9834;48.076;11.878;2023-10-09T13:09:52;22.70;51.70
19397;DHT22;9834;48.076;11.878;2023-10-09T13:12:34;22.60;51.30
19397;DHT22;9834;48.076;11.878;2023-10-09T13:15:05;22.50;51.80
19397;DHT22;9834;48.076;11.878;2023-10-09T13:17:36;22.50;52.60
19397;DHT22;9834;48.076;11.878;2023-10-09T13:20:07;22.40;52.80
19397;DHT22;9834;48.076;11.878;2023-10-09T13:22:39;22.40;52.40
19397;DHT22;9834;48.076;11.878;2023-10-09T13:25:07;22.30;52.80
19397;DHT22;9834;48.076;11.878;2023-10-09T13:27:40;22.20;52.60
19397;DHT22;9834;48.076;11.878;2023-10-09T13:30:08;22.10;52.40
19397;DHT22;9834;48.076;11.878;2023-10-09T13:32:51;22.10;51.70
19397;DHT22;9834;48.076;11.878;2023-10-09T13:35:19;22.10;51.40
19397;DHT22;9834;48.076;11.878;2023-10-09T13:37:53;22.00;51.60
19397;DHT22;9834;48.076;11.878;2023-10-09T13:40:21;22.00;53.80
19397;DHT22;9834;48.076;11.878;2023-10-09T13:42:59;21.90;51.60
19397;DHT22;9834;48.076;11.878;2023-10-09T13:45:29;21.90;51.50
19397;DHT22;9834;48.076;11.878;2023-10-09T13:47:57;21.80;52.20
19397;DHT22;9834;48.076;11.878;2023-10-09T13:50:33;21.80;52.40
19397;DHT22;9834;48.076;11.878;2023-10-09T13:53:00;21.80;52.60
19397;DHT22;9834;48.076;11.878;2023-10-09T13:55:39;21.70;52.90
19397;DHT22;9834;48.076;11.878;2023-10-09T13:58:09;21.50;52.20
19397;DHT22;9834;48.076;11.878;2023-10-09T14:00:39;21.40;52.30
19397;DHT22;9834;48.076;11.878;2023-10-09T14:03:10;21.30;52.90
19397;DHT22;9834;48.076;11.878;2023-10-09T14:05:48;21.30;53.50
19397;DHT22;9834;48.076;11.878;2023-10-09T14:08:35;21.20;53.90
19397;DHT22;9834;48.076;11.878;2023-10-09T14:11:07;21.10;54.00
19397;DHT22;9834;48.076;11.878;2023-10-09T14:13:39;21.10;54.20
19397;DHT22;9834;48.076;11.878;2023-10-09T14:16:08;21.00;55.20
19397;DHT22;9834;48.076;11.878;2023-10-09T14:18:50;20.40;57.70
19397;DHT22;9834;48.076;11.878;2023-10-09T14:21:23;19.40;63.20
19397;DHT22;9834;48.076;11.878;2023-10-09T14:23:54;18.60;69.60
19397;DHT22;9834;48.076;11.878;2023-10-09T14:26:27;17.80;75.40
19397;DHT22;9834;48.076;11.878;2023-10-09T14:29:01;17.40;77.30
19397;DHT22;9834;48.076;11.878;2023-10-09T14:31:35;17.00;82.50
19397;DHT22;9834;48.076;11.878;2023-10-09T14:34:11;16.90;84.60
19397;DHT22;9834;48.076;11.878;2023-10-09T14:36:38;16.90;90.50
19397;DHT22;9834;48.076;11.878;2023-10-09T14:39:14;17.00;92.10
19397;DHT22;9834;48.076;11.878;2023-10-09T14:41:47;17.10;93.00
19397;DHT22;9834;48.076;11.878;2023-10-09T14:44:19;17.30;94.10
19397;DHT22;9834;48.076;11.878;2023-10-09T14:46:46;17.50;94.40
19397;DHT22;9834;48.076;11.878;2023-10-09T14:49:28;17.70;94.90
19397;DHT22;9834;48.076;11.878;2023-10-09T14:52:00;18.00;98.10
19397;DHT22;9834;48.076;11.878;2023-10-09T14:54:35;18.20;99.90
19397;DHT22;9834;48.076;11.878;2023-10-09T14:57:05;18.40;99.90
19397;DHT22;9834;48.076;11.878;2023-10-09T14:59:32;18.60;99.90
19397;DHT22;9834;48.076;11.878;2023-10-09T15:02:00;18.70;99.90
19397;DHT22;9834;48.076;11.878;2023-10-09T15:04:31;18.70;99.90
19397;DHT22;9834;48.076;11.878;2023-10-09T15:07:16;18.70;98.90
19397;DHT22;9834;48.076;11.878;2023-10-09T15:09:43;18.80;96.50
19397;DHT22;9834;48.076;11.878;2023-10-09T15:12:13;18.80;99.90
19397;DHT22;9834;48.076;11.878;2023-10-09T15:14:58;18.80;99.90
19397;DHT22;9834;48.076;11.878;2023-10-09T15:17:29;18.80;99.90
19397;DHT22;9834;48.076;11.878;2023-10-09T15:20:03;18.70;99.90
19397;DHT22;9834;48.076;11.878;2023-10-09T15:22:36;18.70;99.90
19397;DHT22;9834;48.076;11.878;2023-10-09T15:25:06;18.40;99.90
19397;DHT22;9834;48.076;11.878;2023-10-09T15:27:38;18.60;99.90
19397;DHT22;9834;48.076;11.878;2023-10-09T15:30:07;18.70;99.90
19397;DHT22;9834;48.076;11.878;2023-10-09T15:32:47;18.90;99.90
19397;DHT22;9834;48.076;11.878;2023-10-09T15:35:18;18.60;99.90
19397;DHT22;9834;48.076;11.878;2023-10-09T15:37:46;18.60;99.90
19397;DHT22;9834;48.076;11.878;2023-10-09T15:40:20;18.60;99.90
19397;DHT22;9834;48.076;11.878;2023-10-09T15:46:19;18.50;99.90
19397;DHT22;9834;48.076;11.878;2023-10-09T15:48:52;18.40;99.90
19397;DHT22;9834;48.076;11.878;2023-10-09T15:51:25;18.30;99.90
19397;DHT22;9834;48.076;11.878;2023-10-09T15:53:52;18.20;99.90
19397;DHT22;9834;48.076;11.878;2023-10-09T15:56:23;18.20;99.90
19397;DHT22;9834;48.076;11.878;2023-10-09T15:58:52;18.10;99.90
19397;DHT22;9834;48.076;11.878;2023-10-09T16:01:36;18.00;99.90
19397;DHT22;9834;48.076;11.878;2023-10-09T16:11:06;17.70;99.90
19397;DHT22;9834;48.076;11.878;2023-10-09T16:13:34;17.60;99.90
19397;DHT22;9834;48.076;11.878;2023-10-09T16:16:05;17.60;99.90
19397;DHT22;9834;48.076;11.878;2023-10-09T16:18:34;17.40;99.90
19397;DHT22;9834;48.076;11.878;2023-10-09T16:21:03;17.30;99.90
19397;DHT22;9834;48.076;11.878;2023-10-09T16:23:32;17.20;99.90
19397;DHT22;9834;48.076;11.878;2023-10-09T16:26:03;17.00;99.90
19397;DHT22;9834;48.076;11.878;2023-10-09T16:28:35;17.00;99.90
19397;DHT22;9834;48.076;11.878;2023-10-09T16:31:07;16.90;99.90
19397;DHT22;9834;48.076;11.878;2023-10-09T16:33:39;16.80;99.90
19397;DHT22;9834;48.076;11.878;2023-10-09T16:36:06;16.70;99.90
19397;DHT22;9834;48.076;11.878;2023-10-09T16:38:35;16.40;99.90
19397;DHT22;9834;48.076;11.878;2023-10-09T16:41:08;16.60;99.90